Cundiyo, New Mexico
Current Conditions -  °F | °C
As of 11:55 AM on Friday 24 Oct 2014 (Local Time) from KSKX Reporting Station
Clear Clear  
Wind Chill: 64°   Ceiling: Unl
Heat Index: 64°   Visibility: 10mi
Dew Point: 32°   Wind: 5mph
Humidity: 30%   Direction: 330°NNW
Pressure: 30.41"   Gusts: NA
Location:  36.0272°N, 105.768°W
Report Text: KSKX 241755Z AUTO 33004KT 10SM CLR 18/00 A3041 RMK AO1 10180 21010 57007
Loading
Personal Weather Stations






























Interactive Weather Map
Tropical Storm Tracking
New forecast layout! Learn more

10-Day Weather Forecast

Advertisements
Track Severe Weather on mobile